createdAt,value
2018-07-08T00:01:58.962Z,17.20
2018-07-08T00:04:28.578Z,17.10
2018-07-08T00:06:59.558Z,17.20
2018-07-08T00:11:59.081Z,17.00
2018-07-08T00:16:57.859Z,16.90
2018-07-08T00:19:27.598Z,16.90
2018-07-08T00:21:57.767Z,16.90
2018-07-08T00:24:27.767Z,16.90
2018-07-08T00:26:58.258Z,16.80
2018-07-08T00:29:28.158Z,16.80
2018-07-08T00:31:58.318Z,16.70
2018-07-08T00:34:28.858Z,16.70
2018-07-08T00:36:58.619Z,16.60
2018-07-08T00:39:28.218Z,16.40
2018-07-08T00:41:58.226Z,16.40
2018-07-08T00:44:29.160Z,16.40
2018-07-08T00:46:58.798Z,16.30
2018-07-08T00:49:28.821Z,16.30
2018-07-08T00:51:58.780Z,16.30
2018-07-08T00:54:28.479Z,16.30
2018-07-08T00:56:58.519Z,16.20
2018-07-08T01:01:57.381Z,16.10
2018-07-08T01:04:27.061Z,16.10
2018-07-08T01:06:56.542Z,16.10
2018-07-08T01:09:25.960Z,16.10
2018-07-08T01:11:55.361Z,16.10
2018-07-08T01:14:25.299Z,16.00
2018-07-08T01:16:54.719Z,16.00
2018-07-08T01:19:24.419Z,16.00
2018-07-08T01:21:53.859Z,16.00
2018-07-08T01:24:23.359Z,15.90
2018-07-08T01:26:52.739Z,15.90
2018-07-08T01:34:30.639Z,15.70
2018-07-08T01:37:00.090Z,15.60
2018-07-08T01:39:29.559Z,15.50
2018-07-08T01:41:59.459Z,15.40
2018-07-08T01:44:29.500Z,15.40
2018-07-08T01:46:59.000Z,15.40
2018-07-08T01:49:28.399Z,15.40
2018-07-08T01:51:57.839Z,15.40
2018-07-08T01:56:56.040Z,15.30
2018-07-08T01:59:29.919Z,15.30
2018-07-08T02:01:59.387Z,15.20
2018-07-08T02:04:28.959Z,15.10
2018-07-08T02:06:58.719Z,15.10
2018-07-08T02:09:28.479Z,15.10
2018-07-08T02:11:58.179Z,15.10
2018-07-08T02:14:27.999Z,15.00
2018-07-08T02:16:57.960Z,15.00
2018-07-08T02:19:28.419Z,15.00
2018-07-08T02:21:58.240Z,15.00
2018-07-08T02:24:28.060Z,14.90
2018-07-08T02:26:58.199Z,14.80
2018-07-08T02:31:58.767Z,14.80
2018-07-08T02:34:28.539Z,14.70
2018-07-08T02:36:58.300Z,14.70
2018-07-08T02:39:28.359Z,14.70
2018-07-08T02:41:58.119Z,14.60
2018-07-08T02:44:27.780Z,14.70
2018-07-08T02:46:58.280Z,14.60
2018-07-08T02:49:28.000Z,14.50
2018-07-08T02:51:58.260Z,14.50
2018-07-08T02:54:27.880Z,14.50
2018-07-08T02:56:57.880Z,14.50
2018-07-08T03:01:56.759Z,14.50
2018-07-08T03:09:25.980Z,14.40
2018-07-08T03:11:56.521Z,14.40
2018-07-08T03:14:26.860Z,14.30
2018-07-08T03:16:57.264Z,14.10
2018-07-08T03:19:27.020Z,14.00
2018-07-08T03:21:57.160Z,13.90
2018-07-08T03:24:27.280Z,13.80
2018-07-08T03:26:57.170Z,13.80
2018-07-08T03:29:27.060Z,13.80
2018-07-08T03:31:56.920Z,13.80
2018-07-08T03:34:27.639Z,13.80
2018-07-08T03:36:58.019Z,13.80
2018-07-08T03:39:27.921Z,13.80
2018-07-08T03:41:57.919Z,13.90
2018-07-08T03:44:28.322Z,13.90
2018-07-08T03:46:58.160Z,14.00
2018-07-08T03:51:57.480Z,14.20
2018-07-08T03:54:30.299Z,14.50
2018-07-08T03:56:59.940Z,14.80
2018-07-08T03:59:29.699Z,15.20
2018-07-08T04:01:59.460Z,15.70
2018-07-08T04:04:29.118Z,16.30
2018-07-08T04:06:58.738Z,16.80
2018-07-08T04:09:28.279Z,17.10
2018-07-08T04:14:26.879Z,17.50
2018-07-08T04:16:56.405Z,17.70
2018-07-08T04:19:26.266Z,18.10
2018-07-08T04:21:56.094Z,18.30
2018-07-08T04:24:30.979Z,18.50
2018-07-08T04:27:04.699Z,18.80
2018-07-08T04:29:34.600Z,19.00
2018-07-08T04:32:04.539Z,19.30
2018-07-08T04:34:35.662Z,19.70
2018-07-08T04:37:05.540Z,19.90
2018-07-08T04:39:35.079Z,20.20
2018-07-08T04:42:04.759Z,20.50
2018-07-08T04:44:34.500Z,21.00
2018-07-08T04:47:03.940Z,21.70
2018-07-08T04:49:33.699Z,22.20
2018-07-08T04:52:03.578Z,22.60
2018-07-08T04:54:33.261Z,23.10
2018-07-08T04:57:03.375Z,23.30
2018-07-08T04:59:32.799Z,23.50
2018-07-08T05:02:02.926Z,23.70
2018-07-08T05:04:33.066Z,23.90
2018-07-08T05:07:02.446Z,24.00
2018-07-08T05:09:32.765Z,24.20
2018-07-08T05:12:02.568Z,24.20
2018-07-08T05:14:32.128Z,24.10
2018-07-08T05:17:01.809Z,24.00
2018-07-08T05:19:31.886Z,23.60
2018-07-08T05:22:01.306Z,23.40
2018-07-08T05:24:31.086Z,23.10
2018-07-08T05:27:00.926Z,22.90
2018-07-08T05:29:31.286Z,22.70
2018-07-08T05:32:02.305Z,22.50
2018-07-08T05:34:31.989Z,22.50
2018-07-08T05:37:01.659Z,22.50
2018-07-08T05:39:35.240Z,22.30
2018-07-08T05:42:05.120Z,22.20
2018-07-08T05:47:09.099Z,22.30
2018-07-08T05:49:38.482Z,22.30
2018-07-08T05:52:08.938Z,22.40
2018-07-08T05:54:38.478Z,22.50
2018-07-08T05:57:12.179Z,22.50
2018-07-08T05:59:42.399Z,22.30
2018-07-08T06:02:12.083Z,22.10
2018-07-08T06:04:41.981Z,22.00
2018-07-08T06:07:11.720Z,22.00
2018-07-08T06:09:45.382Z,22.20
2018-07-08T06:12:15.042Z,22.40
2018-07-08T06:17:13.922Z,22.90
2018-07-08T06:19:44.325Z,23.00
2018-07-08T06:24:43.522Z,23.40
2018-07-08T06:27:13.141Z,23.40
2018-07-08T06:29:42.761Z,23.60
2018-07-08T06:32:12.242Z,23.60
2018-07-08T06:34:42.101Z,23.70
2018-07-08T06:37:11.842Z,23.90
2018-07-08T06:39:41.381Z,24.00
2018-07-08T06:42:11.255Z,24.30
2018-07-08T06:49:42.565Z,24.30
2018-07-08T06:52:11.886Z,24.20
2018-07-08T06:54:41.047Z,24.30
2018-07-08T06:57:34.092Z,24.40
2018-07-08T07:00:04.321Z,24.60
2018-07-08T07:05:03.660Z,24.90
2018-07-08T07:07:33.820Z,25.00
2018-07-08T07:10:03.741Z,25.30
2018-07-08T07:12:37.881Z,25.50
2018-07-08T07:15:07.840Z,25.60
2018-07-08T07:17:37.461Z,25.80
2018-07-08T07:20:06.981Z,25.70
2018-07-08T07:22:37.480Z,25.60
2018-07-08T07:25:07.240Z,25.60
2018-07-08T07:27:37.081Z,25.60
2018-07-08T07:30:06.842Z,25.60
2018-07-08T07:32:36.682Z,25.70
2018-07-08T07:35:06.199Z,25.70
2018-07-08T07:37:35.397Z,25.70
2018-07-08T07:40:04.800Z,25.60
2018-07-08T07:42:34.801Z,25.50
2018-07-08T07:45:04.582Z,25.40
2018-07-08T07:47:34.381Z,25.30
2018-07-08T07:50:04.102Z,25.20
2018-07-08T07:52:33.764Z,25.10
2018-07-08T07:55:07.983Z,25.00
2018-07-08T07:57:37.484Z,24.90
2018-07-08T08:00:08.160Z,24.90
2018-07-08T08:02:37.843Z,24.90
2018-07-08T08:05:07.475Z,24.90
2018-07-08T08:10:06.944Z,25.40
2018-07-08T08:12:36.921Z,25.40
2018-07-08T08:15:06.506Z,25.60
2018-07-08T08:17:36.644Z,25.70
2018-07-08T08:20:06.443Z,25.60
2018-07-08T08:22:36.583Z,25.70
2018-07-08T08:25:05.944Z,25.70
2018-07-08T08:27:35.744Z,25.60
2018-07-08T08:30:05.585Z,25.50
2018-07-08T08:32:35.523Z,25.50
2018-07-08T08:35:11.283Z,25.70
2018-07-08T08:37:56.776Z,25.90
2018-07-08T08:40:28.559Z,26.40
2018-07-08T08:42:58.301Z,26.30
2018-07-08T08:45:29.310Z,26.20
2018-07-08T08:47:59.145Z,26.00
2018-07-08T08:50:32.741Z,26.10
2018-07-08T08:53:02.242Z,26.30
2018-07-08T08:55:32.302Z,26.50
2018-07-08T08:58:02.309Z,26.60
2018-07-08T09:00:31.642Z,26.60
2018-07-08T09:03:01.485Z,26.50
2018-07-08T09:05:31.267Z,26.40
2018-07-08T09:08:01.285Z,26.10
2018-07-08T09:10:36.806Z,26.30
2018-07-08T09:13:06.566Z,26.40
2018-07-08T09:15:39.505Z,26.50
2018-07-08T09:18:09.248Z,26.60
2018-07-08T09:20:38.824Z,26.50
2018-07-08T09:23:08.264Z,26.50
2018-07-08T09:25:37.844Z,26.50
2018-07-08T09:28:07.221Z,26.50
2018-07-08T09:30:36.641Z,26.40
2018-07-08T09:33:06.108Z,26.40
2018-07-08T09:35:35.901Z,26.30
2018-07-08T09:38:06.324Z,26.10
2018-07-08T09:40:36.824Z,26.10
2018-07-08T09:43:06.964Z,26.30
2018-07-08T09:45:36.565Z,26.60
2018-07-08T09:48:06.571Z,26.50
2018-07-08T09:50:35.986Z,26.20
2018-07-08T09:53:05.840Z,26.10
2018-07-08T09:55:35.420Z,25.90
2018-07-08T09:58:05.784Z,25.50
2018-07-08T10:00:39.440Z,25.40
2018-07-08T10:03:09.360Z,25.50
2018-07-08T10:05:39.360Z,25.40
2018-07-08T10:08:13.484Z,25.30
2018-07-08T10:10:43.074Z,25.30
2018-07-08T10:13:13.007Z,25.20
2018-07-08T10:15:47.125Z,25.10
2018-07-08T10:18:17.748Z,25.00
2018-07-08T10:20:48.044Z,24.90
2018-07-08T10:23:17.845Z,24.90
2018-07-08T10:25:47.524Z,24.80
2018-07-08T10:28:18.224Z,24.80
2018-07-08T10:30:48.361Z,25.10
2018-07-08T10:33:18.062Z,25.20
2018-07-08T10:36:02.863Z,25.00
2018-07-08T10:38:33.481Z,25.00
2018-07-08T10:41:04.204Z,25.10
2018-07-08T10:43:33.701Z,25.00
2018-07-08T10:46:03.324Z,24.80
2018-07-08T10:48:33.068Z,24.80
2018-07-08T10:51:02.883Z,24.70
2018-07-08T10:53:32.743Z,24.60
2018-07-08T10:56:02.286Z,24.30
2018-07-08T10:58:32.303Z,24.30
2018-07-08T11:01:02.543Z,24.30
2018-07-08T11:03:32.063Z,24.60
2018-07-08T11:06:02.084Z,24.90
2018-07-08T11:08:31.667Z,25.00
2018-07-08T11:11:01.402Z,25.10
2018-07-08T11:13:30.922Z,25.40
2018-07-08T11:16:00.980Z,25.60
2018-07-08T11:18:30.800Z,25.90
2018-07-08T11:21:00.457Z,26.20
2018-07-08T11:23:31.160Z,26.20
2018-07-08T11:26:01.300Z,26.30
2018-07-08T11:28:31.669Z,26.20
2018-07-08T11:31:01.500Z,26.30
2018-07-08T11:33:31.159Z,26.30
2018-07-08T11:36:00.600Z,26.20
2018-07-08T11:38:30.099Z,26.30
2018-07-08T11:41:00.778Z,26.50
2018-07-08T11:43:30.559Z,27.00
2018-07-08T11:46:00.239Z,27.10
2018-07-08T11:48:30.059Z,27.00
2018-07-08T11:50:59.879Z,26.90
2018-07-08T11:56:00.340Z,26.80
2018-07-08T11:58:30.298Z,27.00
2018-07-08T12:01:00.839Z,26.80
2018-07-08T12:03:30.919Z,26.40
2018-07-08T12:06:01.400Z,26.00
2018-07-08T12:08:31.451Z,25.90
2018-07-08T12:13:30.159Z,25.80
2018-07-08T12:16:00.839Z,25.80
2018-07-08T12:18:30.679Z,25.70
2018-07-08T12:21:00.519Z,25.50
2018-07-08T12:23:30.599Z,25.40
2018-07-08T12:26:00.699Z,25.30
2018-07-08T12:28:30.419Z,25.40
2018-07-08T12:33:34.119Z,25.60
2018-07-08T12:36:04.278Z,25.60
2018-07-08T12:38:34.279Z,25.50
2018-07-08T12:41:03.941Z,25.40
2018-07-08T12:43:34.201Z,25.40
2018-07-08T12:46:04.509Z,25.30
2018-07-08T12:48:35.049Z,25.30
2018-07-08T12:51:04.526Z,25.40
2018-07-08T12:53:34.346Z,25.40
2018-07-08T12:56:03.945Z,25.40
2018-07-08T12:58:33.651Z,25.50
2018-07-08T13:01:07.186Z,25.40
2018-07-08T13:03:37.662Z,25.40
2018-07-08T13:06:07.669Z,25.40
2018-07-08T13:08:37.382Z,25.70
2018-07-08T13:11:07.402Z,25.90
2018-07-08T13:13:37.521Z,26.00
2018-07-08T13:16:07.963Z,26.10
2018-07-08T13:18:38.341Z,25.90
2018-07-08T13:21:08.320Z,25.90
2018-07-08T13:23:37.781Z,25.90
2018-07-08T13:28:36.690Z,26.20
2018-07-08T13:31:06.730Z,26.30
2018-07-08T13:33:36.792Z,26.30
2018-07-08T13:36:07.050Z,26.20
2018-07-08T13:38:36.650Z,26.20
2018-07-08T13:41:06.210Z,26.20
2018-07-08T13:43:35.850Z,26.20
2018-07-08T13:46:05.611Z,26.10
2018-07-08T13:48:35.729Z,25.90
2018-07-08T13:51:05.769Z,25.80
2018-07-08T13:53:35.290Z,25.70
2018-07-08T13:56:04.930Z,25.70
2018-07-08T13:58:38.690Z,25.70
2018-07-08T14:01:09.366Z,25.70
2018-07-08T14:03:39.201Z,25.70
2018-07-08T14:06:09.061Z,25.60
2018-07-08T14:08:39.081Z,25.70
2018-07-08T14:11:08.650Z,25.80
2018-07-08T14:13:38.552Z,25.90
2018-07-08T14:16:08.749Z,25.90
2018-07-08T14:18:38.449Z,25.90
2018-07-08T14:21:08.812Z,25.90
2018-07-08T14:23:39.510Z,25.90
2018-07-08T14:26:09.689Z,25.90
2018-07-08T14:28:39.409Z,25.90
2018-07-08T14:31:08.955Z,25.90
2018-07-08T14:33:38.927Z,26.00
2018-07-08T14:36:08.773Z,26.10
2018-07-08T14:38:38.504Z,26.00
2018-07-08T14:41:12.084Z,26.00
2018-07-08T14:43:42.182Z,25.80
2018-07-08T14:48:41.423Z,25.80
2018-07-08T14:51:11.023Z,26.00
2018-07-08T14:53:40.962Z,26.10
2018-07-08T14:56:10.853Z,26.00
2018-07-08T14:58:40.923Z,25.90
2018-07-08T15:01:11.041Z,25.60
2018-07-08T15:03:41.082Z,25.30
2018-07-08T15:06:10.804Z,25.00
2018-07-08T15:11:11.541Z,24.90
2018-07-08T15:13:41.444Z,24.90
2018-07-08T15:16:11.220Z,24.90
2018-07-08T15:18:40.922Z,24.90
2018-07-08T15:21:10.765Z,24.80
2018-07-08T15:23:44.821Z,24.90
2018-07-08T15:26:15.089Z,24.90
2018-07-08T15:28:45.181Z,24.80
2018-07-08T15:31:15.761Z,24.70
2018-07-08T15:33:45.601Z,24.70
2018-07-08T15:36:15.709Z,24.60
2018-07-08T15:38:49.662Z,24.50
2018-07-08T15:41:19.520Z,24.50
2018-07-08T15:43:49.462Z,24.50
2018-07-08T15:46:20.023Z,24.40
2018-07-08T15:48:50.302Z,24.40
2018-07-08T15:51:20.704Z,24.40
2018-07-08T15:53:50.362Z,24.40
2018-07-08T15:56:20.202Z,24.50
2018-07-08T15:58:49.961Z,24.40
2018-07-08T16:03:48.844Z,24.50
2018-07-08T16:06:18.811Z,24.60
2018-07-08T16:08:48.684Z,24.60
2018-07-08T16:11:18.326Z,24.60
2018-07-08T16:13:48.404Z,24.70
2018-07-08T16:16:18.303Z,24.80
2018-07-08T16:18:48.692Z,24.90
2018-07-08T16:21:18.449Z,25.00
2018-07-08T16:23:48.126Z,25.00
2018-07-08T16:26:17.673Z,25.00
2018-07-08T16:28:47.284Z,24.90
2018-07-08T16:31:16.924Z,24.90
2018-07-08T16:33:46.545Z,24.90
2018-07-08T16:36:16.265Z,24.90
2018-07-08T16:38:46.104Z,24.90
2018-07-08T16:41:15.885Z,24.80
2018-07-08T16:43:45.524Z,24.80
2018-07-08T16:46:18.923Z,24.70
2018-07-08T16:48:48.683Z,24.50
2018-07-08T16:51:18.245Z,24.30
2018-07-08T16:53:48.665Z,24.20
2018-07-08T16:56:18.628Z,24.10
2018-07-08T16:58:48.864Z,24.00
2018-07-08T17:01:18.902Z,24.00
2018-07-08T17:03:48.683Z,23.90
2018-07-08T17:06:18.343Z,23.80
2018-07-08T17:08:48.042Z,23.80
2018-07-08T17:11:17.843Z,23.80
2018-07-08T17:13:48.222Z,23.80
2018-07-08T17:16:18.458Z,23.70
2018-07-08T17:18:48.762Z,23.60
2018-07-08T17:21:18.522Z,23.50
2018-07-08T17:23:49.204Z,23.50
2018-07-08T17:26:19.234Z,23.40
2018-07-08T17:28:49.403Z,23.30
2018-07-08T17:31:19.721Z,23.30
2018-07-08T17:33:49.500Z,23.20
2018-07-08T17:38:48.661Z,23.00
2018-07-08T17:41:18.380Z,22.90
2018-07-08T17:43:48.380Z,22.80
2018-07-08T17:46:18.161Z,22.80
2018-07-08T17:48:48.179Z,22.70
2018-07-08T17:51:17.941Z,22.70
2018-07-08T17:53:48.199Z,22.60
2018-07-08T17:56:17.843Z,22.40
2018-07-08T17:58:47.743Z,22.30
2018-07-08T18:01:19.062Z,22.10
2018-07-08T18:03:49.142Z,22.00
2018-07-08T18:06:18.803Z,21.80
2018-07-08T18:08:48.714Z,21.80
2018-07-08T18:11:18.420Z,21.70
2018-07-08T18:16:17.100Z,21.50
2018-07-08T18:18:47.040Z,21.40
2018-07-08T18:21:16.973Z,21.30
2018-07-08T18:23:47.344Z,21.30
2018-07-08T18:26:38.748Z,21.30
2018-07-08T18:29:09.864Z,21.20
2018-07-08T18:31:44.429Z,21.20
2018-07-08T18:34:14.168Z,21.10
2018-07-08T18:36:44.430Z,21.10
2018-07-08T18:39:14.168Z,21.10
2018-07-08T18:41:43.868Z,21.00
2018-07-08T18:44:13.449Z,21.00
2018-07-08T18:46:43.569Z,20.90
2018-07-08T18:49:13.287Z,20.90
2018-07-08T18:51:43.428Z,20.80
2018-07-08T18:54:13.168Z,20.80
2018-07-08T18:56:42.868Z,20.70
2018-07-08T18:59:12.677Z,20.70
2018-07-08T19:01:42.650Z,20.60
2018-07-08T19:04:14.009Z,20.60
2018-07-08T19:06:43.789Z,20.50
2018-07-08T19:09:13.631Z,20.50
2018-07-08T19:11:43.868Z,20.40
2018-07-08T19:14:14.089Z,20.30
2018-07-08T19:16:43.754Z,20.20
2018-07-08T19:19:13.660Z,20.10
2018-07-08T19:21:43.394Z,20.00
2018-07-08T19:26:42.450Z,19.90
2018-07-08T19:29:12.691Z,19.90
2018-07-08T19:31:43.090Z,19.90
2018-07-08T19:34:13.208Z,19.90
2018-07-08T19:36:42.793Z,19.90
2018-07-08T19:39:12.688Z,20.00
2018-07-08T19:41:42.870Z,19.90
2018-07-08T19:44:12.848Z,19.90
2018-07-08T19:46:42.509Z,19.90
2018-07-08T19:49:12.509Z,19.90
2018-07-08T19:51:42.868Z,19.80
2018-07-08T19:54:12.530Z,19.90
2018-07-08T19:56:42.249Z,19.90
2018-07-08T19:59:12.016Z,19.80
2018-07-08T20:01:41.812Z,19.80
2018-07-08T20:06:40.679Z,19.70
2018-07-08T20:09:10.793Z,19.70
2018-07-08T20:11:41.811Z,19.70
2018-07-08T20:14:11.469Z,19.60
2018-07-08T20:16:41.089Z,19.60
2018-07-08T20:21:39.738Z,19.60
2018-07-08T20:24:09.568Z,19.60
2018-07-08T20:26:39.259Z,19.60
2018-07-08T20:29:08.904Z,19.50
2018-07-08T20:31:39.091Z,19.50
2018-07-08T20:34:08.743Z,19.40
2018-07-08T20:36:38.320Z,19.40
2018-07-08T20:39:08.643Z,19.30
2018-07-08T20:41:38.466Z,19.20
2018-07-08T20:44:08.081Z,19.10
2018-07-08T20:46:37.683Z,19.10
2018-07-08T20:49:08.522Z,19.00
2018-07-08T20:51:38.402Z,19.00
2018-07-08T20:54:08.222Z,18.90
2018-07-08T20:56:37.963Z,18.80
2018-07-08T20:59:08.162Z,18.80
2018-07-08T21:01:38.603Z,18.80
2018-07-08T21:04:08.701Z,18.70
2018-07-08T21:06:41.279Z,18.60
2018-07-08T21:09:11.099Z,18.60
2018-07-08T21:11:40.819Z,18.60
2018-07-08T21:14:10.879Z,18.50
2018-07-08T21:16:40.960Z,18.40
2018-07-08T21:19:10.747Z,18.40
2018-07-08T21:21:40.522Z,18.30
2018-07-08T21:24:10.679Z,18.30
2018-07-08T21:26:41.300Z,18.20
2018-07-08T21:31:41.729Z,18.10
2018-07-08T21:34:12.381Z,18.10
2018-07-08T21:36:42.919Z,18.10
2018-07-08T21:39:12.940Z,18.20
2018-07-08T21:41:43.579Z,18.10
2018-07-08T21:44:13.920Z,18.10
2018-07-08T21:46:43.586Z,18.20
2018-07-08T21:49:13.600Z,18.10
2018-07-08T21:51:44.000Z,18.10
2018-07-08T21:54:14.119Z,18.10
2018-07-08T21:56:44.199Z,18.10
2018-07-08T21:59:14.220Z,18.10
2018-07-08T22:02:03.203Z,18.00
2018-07-08T22:04:33.383Z,18.10
2018-07-08T22:07:08.184Z,18.10
2018-07-08T22:09:37.864Z,18.10
2018-07-08T22:12:08.905Z,18.00
2018-07-08T22:14:39.069Z,18.00
2018-07-08T22:17:09.466Z,18.00
2018-07-08T22:22:13.083Z,17.90
2018-07-08T22:24:43.184Z,17.90
2018-07-08T22:27:12.924Z,17.90
2018-07-08T22:29:42.771Z,17.90
2018-07-08T22:32:12.843Z,17.90
2018-07-08T22:34:44.203Z,17.90
2018-07-08T22:37:14.243Z,17.90
2018-07-08T22:39:44.203Z,17.80
2018-07-08T22:42:14.323Z,17.80
2018-07-08T22:44:44.083Z,17.80
2018-07-08T22:47:13.965Z,17.80
2018-07-08T22:49:43.982Z,17.80
2018-07-08T22:52:14.084Z,17.80
2018-07-08T22:54:44.202Z,17.80
2018-07-08T22:57:14.401Z,17.70
2018-07-08T22:59:54.721Z,17.70
2018-07-08T23:02:47.451Z,17.70
2018-07-08T23:05:17.510Z,17.70
2018-07-08T23:07:47.129Z,17.70
2018-07-08T23:10:16.689Z,17.70
2018-07-08T23:12:46.530Z,17.60
2018-07-08T23:15:16.430Z,17.60
2018-07-08T23:17:46.550Z,17.60
2018-07-08T23:20:16.649Z,17.50
2018-07-08T23:22:57.929Z,17.40
2018-07-08T23:25:29.769Z,17.40
2018-07-08T23:27:59.730Z,17.40
2018-07-08T23:30:30.070Z,17.40
2018-07-08T23:33:00.070Z,17.40
2018-07-08T23:35:29.827Z,17.30
2018-07-08T23:38:00.149Z,17.30
2018-07-08T23:40:34.609Z,17.30
2018-07-08T23:43:04.349Z,17.30
2018-07-08T23:48:04.849Z,17.10
2018-07-08T23:50:34.934Z,17.00
2018-07-08T23:53:05.343Z,17.00
2018-07-08T23:55:35.642Z,16.90
2018-07-08T23:58:06.122Z,16.90
